Time;durP1;ratioP1;P1;durP2;ratioP2;P2;SDS_P1;SDS_P2;PMS_P1;PMS_P2;Temp;Humidity;BMP_temperature;BMP_pressure;BME280_temperature;BME280_humidity;BME280_pressure;Samples;Min_cycle;Max_cycle;Signal;HPM_P1;HPM_P2
2023/01/21 00:00:20;;;;;;;33.90;12.67;;;-0.40;99.90;;;;;;4434121;28;659895;-64
2023/01/21 00:03:07;;;;;;;17.63;7.87;;;-0.40;99.90;;;;;;4421254;28;661442;-64
2023/01/21 00:05:57;;;;;;;28.03;11.80;;;-0.40;99.90;;;;;;4433415;28;657444;-64
2023/01/21 00:08:44;;;;;;;131.73;36.87;;;-0.40;99.90;;;;;;4411979;28;659780;-64
2023/01/21 00:11:31;;;;;;;15.03;6.30;;;-0.40;99.90;;;;;;4421709;28;659854;-64
2023/01/21 00:14:20;;;;;;;59.30;18.08;;;-0.40;99.90;;;;;;4441303;28;659609;-64
2023/01/21 00:17:07;;;;;;;155.00;43.37;;;-0.40;99.90;;;;;;4413306;28;659633;-64
2023/01/21 00:19:54;;;;;;;27.93;9.97;;;-0.40;99.90;;;;;;4435684;28;659397;-63
2023/01/21 00:22:41;;;;;;;42.47;13.97;;;-0.40;99.90;;;;;;4423539;28;658133;-64
2023/01/21 00:25:29;;;;;;;82.90;21.63;;;-0.40;99.90;;;;;;4433206;28;659501;-64
2023/01/21 00:28:16;;;;;;;41.73;12.67;;;-0.40;99.90;;;;;;4421238;28;658659;-64
2023/01/21 00:31:06;;;;;;;84.40;24.83;;;-0.40;99.90;;;;;;4442954;28;659617;-64
2023/01/21 00:33:53;;;;;;;38.17;12.80;;;-0.40;99.90;;;;;;4420177;28;658923;-64
2023/01/21 00:36:40;;;;;;;44.30;12.90;;;-0.40;99.90;;;;;;4418387;28;658632;-64
2023/01/21 00:39:27;;;;;;;29.13;10.20;;;-0.40;99.90;;;;;;4439761;28;661134;-64
2023/01/21 00:42:15;;;;;;;35.53;14.03;;;-0.40;99.90;;;;;;4429294;28;658746;-65
2023/01/21 00:45:03;;;;;;;33.10;11.20;;;-0.40;99.90;;;;;;4444426;28;659091;-64
2023/01/21 00:47:52;;;;;;;15.77;5.80;;;-0.40;99.90;;;;;;4429062;28;659094;-65
2023/01/21 00:50:39;;;;;;;12.40;5.63;;;-0.40;99.90;;;;;;4438144;28;658127;-64
2023/01/21 00:53:26;;;;;;;33.43;11.33;;;-0.40;99.90;;;;;;4421708;28;658184;-64
2023/01/21 00:56:13;;;;;;;16.33;7.00;;;-0.40;99.90;;;;;;4440695;28;660561;-64
2023/01/21 00:59:01;;;;;;;33.90;12.30;;;-0.30;99.90;;;;;;4416230;28;657835;-64
2023/01/21 01:01:48;;;;;;;82.23;25.37;;;-0.30;99.90;;;;;;4447422;28;658825;-64
2023/01/21 01:04:37;;;;;;;54.60;18.17;;;-0.30;99.90;;;;;;4425694;28;659219;-65
2023/01/21 01:07:24;;;;;;;40.33;15.90;;;-0.30;99.90;;;;;;4436694;28;659350;-65
2023/01/21 01:10:11;;;;;;;23.87;10.37;;;-0.30;99.90;;;;;;4413901;28;658473;-64
2023/01/21 01:13:00;;;;;;;12.47;5.53;;;-0.30;99.90;;;;;;4439562;28;659244;-64
2023/01/21 01:15:51;;;;;;;7.85;3.55;;;-0.30;99.90;;;;;;4425342;28;657398;-63
2023/01/21 01:18:38;;;;;;;6.87;3.93;;;-0.40;99.90;;;;;;4418785;28;657277;-63
2023/01/21 01:21:27;;;;;;;9.33;4.73;;;-0.40;99.90;;;;;;4423027;28;656722;-65
2023/01/21 01:24:14;;;;;;;10.17;5.00;;;-0.40;99.90;;;;;;4437876;28;656722;-64
2023/01/21 01:27:01;;;;;;;9.57;4.20;;;-0.40;99.90;;;;;;4423741;28;657872;-64
2023/01/21 01:29:48;;;;;;;11.10;4.93;;;-0.30;99.90;;;;;;4439572;28;657368;-64
2023/01/21 01:32:36;;;;;;;11.30;5.47;;;-0.30;99.90;;;;;;4417466;28;657671;-64
2023/01/21 01:35:23;;;;;;;9.77;5.40;;;-0.40;99.90;;;;;;4440058;28;657568;-64
2023/01/21 01:38:12;;;;;;;8.37;4.30;;;-0.40;99.90;;;;;;4420357;28;656412;-66
2023/01/21 01:40:59;;;;;;;8.63;4.50;;;-0.40;99.90;;;;;;4440631;28;656870;-63
2023/01/21 01:43:56;;;;;;;8.60;3.80;;;-0.40;99.90;;;;;;4423774;28;656698;-64
2023/01/21 01:46:43;;;;;;;7.57;4.23;;;-0.40;99.90;;;;;;4418581;28;657115;-64
2023/01/21 01:49:30;;;;;;;6.70;3.50;;;-0.40;99.90;;;;;;4420931;28;656833;-65
2023/01/21 01:52:17;;;;;;;8.27;3.90;;;-0.30;99.90;;;;;;4442819;28;656490;-64
2023/01/21 01:55:07;;;;;;;6.63;3.40;;;-0.40;99.90;;;;;;4440638;28;656582;-64
2023/01/21 01:57:54;;;;;;;7.27;3.90;;;-0.40;99.90;;;;;;4416442;28;657042;-64
2023/01/21 02:00:41;;;;;;;6.53;3.60;;;-0.40;99.90;;;;;;4422530;28;656399;-64
2023/01/21 02:03:44;;;;;;;6.63;3.30;;;-0.40;99.90;;;;;;4437431;28;658919;-64
2023/01/21 02:06:31;;;;;;;7.93;3.53;;;-0.40;99.90;;;;;;4425503;28;656530;-64
2023/01/21 02:09:18;;;;;;;6.30;3.35;;;-0.40;99.90;;;;;;4439664;28;657061;-64
2023/01/21 02:12:07;;;;;;;5.53;3.07;;;-0.40;99.90;;;;;;4414855;28;656708;-64
2023/01/21 02:14:54;;;;;;;6.33;3.50;;;-0.40;99.90;;;;;;4441313;28;657693;-64
2023/01/21 02:17:48;;;;;;;6.07;3.20;;;-0.40;99.90;;;;;;4418316;28;656615;-63
2023/01/21 02:21:10;;;;;;;6.28;2.95;;;-0.40;99.90;;;;;;4392475;28;657118;-65
2023/01/21 02:24:11;;;;;;;5.60;3.10;;;-0.40;99.90;;;;;;4381896;28;657573;-64
2023/01/21 02:27:26;;;;;;;5.73;2.80;;;-0.40;99.90;;;;;;4402769;28;657466;-65
2023/01/21 02:30:40;;;;;;;5.80;3.13;;;-0.40;99.90;;;;;;4401565;28;656976;-64
2023/01/21 02:34:00;;;;;;;6.80;3.03;;;-0.40;99.90;;;;;;4410194;28;656365;-64
2023/01/21 02:37:00;;;;;;;5.87;2.70;;;-0.40;99.90;;;;;;4381256;28;657917;-64
2023/01/21 02:39:55;;;;;;;6.20;3.40;;;-0.40;99.90;;;;;;4384316;28;656958;-64
2023/01/21 02:42:45;;;;;;;6.03;3.27;;;-0.40;99.90;;;;;;4380208;28;657888;-64
2023/01/21 02:45:35;;;;;;;5.43;2.97;;;-0.40;99.90;;;;;;4401160;28;658098;-64
2023/01/21 02:48:24;;;;;;;7.93;3.57;;;-0.40;99.90;;;;;;4413276;28;657074;-64
2023/01/21 02:51:13;;;;;;;7.80;3.30;;;-0.40;99.90;;;;;;4412525;28;657113;-64
2023/01/21 02:54:11;;;;;;;7.50;3.33;;;-0.50;99.90;;;;;;4413143;28;657245;-64
2023/01/21 02:56:58;;;;;;;9.40;3.30;;;-0.50;99.90;;;;;;4401078;28;657388;-63
2023/01/21 02:59:47;;;;;;;9.03;3.47;;;-0.50;99.90;;;;;;4408755;28;656709;-64
2023/01/21 03:02:55;;;;;;;8.97;3.67;;;-0.50;99.90;;;;;;4437853;28;656042;-64
2023/01/21 03:05:49;;;;;;;12.07;4.50;;;-0.50;99.90;;;;;;4385239;28;657450;-64
2023/01/21 03:08:40;;;;;;;7.83;3.63;;;-0.40;99.90;;;;;;4409742;28;657817;-64
2023/01/21 03:11:27;;;;;;;14.00;4.50;;;-0.50;99.90;;;;;;4408731;28;656380;-64
2023/01/21 03:17:24;;;;;;;10.32;3.92;;;-0.50;99.90;;;;;;4414680;28;657901;-64
2023/01/21 03:20:13;;;;;;;8.40;3.70;;;-0.50;99.90;;;;;;4405974;28;657756;-64
2023/01/21 03:23:02;;;;;;;8.40;3.43;;;-0.50;99.90;;;;;;4421531;28;657532;-65
2023/01/21 03:25:51;;;;;;;6.73;3.20;;;-0.50;99.90;;;;;;4434286;28;656514;-65
2023/01/21 03:28:41;;;;;;;7.55;3.38;;;-0.50;99.90;;;;;;4402575;28;657894;-63
2023/01/21 03:31:29;;;;;;;8.30;3.43;;;-0.50;99.90;;;;;;4405022;28;657831;-64
2023/01/21 03:34:16;;;;;;;8.83;4.10;;;-0.50;99.90;;;;;;4404954;28;656804;-64
2023/01/21 03:37:05;;;;;;;12.13;4.00;;;-0.50;99.90;;;;;;4430044;28;657213;-64
2023/01/21 03:39:55;;;;;;;8.07;3.87;;;-0.50;99.90;;;;;;4409190;28;658272;-64
2023/01/21 03:42:44;;;;;;;7.53;3.90;;;-0.50;99.90;;;;;;4412217;28;657911;-63
2023/01/21 03:45:35;;;;;;;7.83;4.13;;;-0.50;99.90;;;;;;4410003;28;656370;-63
2023/01/21 03:48:25;;;;;;;6.57;3.50;;;-0.50;99.90;;;;;;4401700;28;657376;-65
2023/01/21 03:51:15;;;;;;;7.23;3.53;;;-0.50;99.90;;;;;;4402984;28;658289;-64
2023/01/21 03:54:02;;;;;;;8.03;3.57;;;-0.50;99.90;;;;;;4405820;28;657575;-64
2023/01/21 03:56:49;;;;;;;11.07;3.70;;;-0.50;99.90;;;;;;4432588;28;656394;-64
2023/01/21 03:59:38;;;;;;;7.67;3.80;;;-0.50;99.90;;;;;;4405072;28;658123;-64
2023/01/21 04:02:25;;;;;;;8.87;4.37;;;-0.60;99.90;;;;;;4418112;28;657069;-65
2023/01/21 04:05:13;;;;;;;8.90;4.50;;;-0.50;99.90;;;;;;4429338;28;656628;-64
2023/01/21 04:08:01;;;;;;;8.97;4.47;;;-0.50;99.90;;;;;;4421456;28;657833;-66
2023/01/21 04:10:48;;;;;;;10.50;4.60;;;-0.50;99.90;;;;;;4432747;28;657437;-64
2023/01/21 04:13:35;;;;;;;7.53;3.90;;;-0.50;99.90;;;;;;4409377;28;657684;-65
2023/01/21 04:16:24;;;;;;;7.83;3.90;;;-0.50;99.90;;;;;;4426814;28;657478;-64
2023/01/21 04:19:11;;;;;;;7.03;3.47;;;-0.60;99.90;;;;;;4405313;28;656779;-64
2023/01/21 04:21:58;;;;;;;5.90;3.40;;;-0.60;99.90;;;;;;4409869;28;657900;-64
2023/01/21 04:24:45;;;;;;;6.50;3.50;;;-0.60;99.90;;;;;;4390776;28;656862;-64
2023/01/21 04:27:33;;;;;;;6.33;3.63;;;-0.60;99.90;;;;;;4409595;28;658592;-64
2023/01/21 04:30:20;;;;;;;5.67;3.30;;;-0.50;99.90;;;;;;4403374;28;656486;-65
2023/01/21 04:33:09;;;;;;;7.23;3.90;;;-0.50;99.90;;;;;;4413047;28;658075;-64
2023/01/21 04:35:57;;;;;;;5.43;3.30;;;-0.50;99.90;;;;;;4385957;28;656835;-64
2023/01/21 04:38:44;;;;;;;9.37;3.93;;;-0.50;99.90;;;;;;4411838;28;656073;-64
2023/01/21 04:41:32;;;;;;;6.67;3.77;;;-0.50;99.90;;;;;;4390327;28;656877;-64
2023/01/21 04:44:19;;;;;;;7.80;3.73;;;-0.50;99.90;;;;;;4408879;28;657449;-63
2023/01/21 04:47:06;;;;;;;10.17;4.37;;;-0.50;99.90;;;;;;4398132;28;656710;-64
2023/01/21 04:49:55;;;;;;;6.40;3.67;;;-0.50;99.90;;;;;;4408850;28;659532;-65
2023/01/21 04:52:42;;;;;;;8.10;3.57;;;-0.50;99.90;;;;;;4386424;28;657697;-64
2023/01/21 04:55:29;;;;;;;7.00;3.60;;;-0.50;99.90;;;;;;4408071;28;656558;-64
2023/01/21 04:58:16;;;;;;;6.30;3.40;;;-0.50;99.90;;;;;;4384296;28;656671;-64
2023/01/21 05:01:04;;;;;;;7.40;3.47;;;-0.40;99.90;;;;;;4412552;28;657672;-64
2023/01/21 05:03:51;;;;;;;6.27;3.53;;;-0.40;99.90;;;;;;4388916;28;656657;-64
2023/01/21 05:06:39;;;;;;;6.80;3.43;;;-0.40;99.90;;;;;;4410610;28;656966;-64
2023/01/21 05:09:27;;;;;;;11.10;3.80;;;-0.40;99.90;;;;;;4393773;28;657051;-64
2023/01/21 05:12:14;;;;;;;8.67;4.27;;;-0.40;99.90;;;;;;4407506;28;657210;-64
2023/01/21 05:15:02;;;;;;;6.83;3.27;;;-0.40;99.90;;;;;;4388466;28;656915;-64
2023/01/21 05:17:49;;;;;;;6.00;3.63;;;-0.40;99.90;;;;;;4406379;28;656856;-64
2023/01/21 05:20:36;;;;;;;5.90;3.20;;;-0.30;99.90;;;;;;4397659;28;657046;-64
2023/01/21 05:23:25;;;;;;;6.95;3.88;;;-0.40;99.90;;;;;;4431954;28;658090;-64
2023/01/21 05:26:12;;;;;;;8.60;3.10;;;-0.30;99.90;;;;;;4414618;28;656643;-65
2023/01/21 05:28:59;;;;;;;6.37;3.90;;;-0.40;99.90;;;;;;4426836;28;656544;-64
2023/01/21 05:31:46;;;;;;;7.70;3.85;;;-0.40;99.90;;;;;;4411616;28;656768;-64
2023/01/21 05:34:33;;;;;;;7.47;3.63;;;-0.50;99.90;;;;;;4424055;28;657785;-64
2023/01/21 05:37:21;;;;;;;7.37;3.83;;;-0.40;99.90;;;;;;4407567;28;656991;-63
2023/01/21 05:40:11;;;;;;;6.10;3.17;;;-0.40;99.90;;;;;;4425679;28;656765;-64
2023/01/21 05:42:58;;;;;;;6.93;4.20;;;-0.50;99.90;;;;;;4403354;28;656782;-64
2023/01/21 05:45:45;;;;;;;10.43;4.50;;;-0.40;99.90;;;;;;4404551;28;656330;-65
2023/01/21 05:48:32;;;;;;;7.67;3.70;;;-0.40;99.90;;;;;;4429054;28;658061;-64
2023/01/21 05:51:20;;;;;;;8.97;4.70;;;-0.30;99.90;;;;;;4423243;28;656820;-64
2023/01/21 05:54:07;;;;;;;7.27;3.80;;;-0.30;99.90;;;;;;4400707;28;657672;-64
2023/01/21 05:56:55;;;;;;;10.93;5.00;;;-0.50;99.90;;;;;;4420252;28;657356;-65
2023/01/21 05:59:43;;;;;;;6.88;3.33;;;-0.50;99.90;;;;;;4394802;28;658875;-64
2023/01/21 06:02:30;;;;;;;8.17;4.50;;;-0.50;99.90;;;;;;4418146;28;656712;-65
2023/01/21 06:05:17;;;;;;;7.80;3.97;;;-0.50;99.90;;;;;;4430678;28;657777;-64
2023/01/21 06:08:05;;;;;;;9.67;4.40;;;-0.50;99.90;;;;;;4423600;28;656562;-65
2023/01/21 06:10:53;;;;;;;9.67;4.30;;;-0.50;99.90;;;;;;4428684;28;657010;-64
2023/01/21 06:13:42;;;;;;;9.80;4.07;;;-0.40;99.90;;;;;;4407330;28;657016;-65
2023/01/21 06:16:29;;;;;;;11.57;5.73;;;-0.50;99.90;;;;;;4429671;28;656240;-65
2023/01/21 06:19:16;;;;;;;9.53;3.83;;;-0.50;99.90;;;;;;4408730;28;657775;-64
2023/01/21 06:22:03;;;;;;;5.90;3.40;;;-0.50;99.90;;;;;;4405421;28;656349;-65
2023/01/21 06:24:51;;;;;;;8.77;4.20;;;-0.50;99.90;;;;;;4392870;28;656903;-64
2023/01/21 06:27:38;;;;;;;7.27;3.80;;;-0.50;99.90;;;;;;4410427;28;657659;-64
2023/01/21 06:30:27;;;;;;;8.10;3.83;;;-0.50;99.90;;;;;;4389985;28;656394;-65
2023/01/21 06:33:14;;;;;;;7.37;4.00;;;-0.50;99.90;;;;;;4417276;28;656289;-65
2023/01/21 06:36:01;;;;;;;10.43;3.57;;;-0.50;99.90;;;;;;4394112;28;656802;-65
2023/01/21 06:38:48;;;;;;;6.07;3.72;;;-0.40;99.90;;;;;;4413598;28;658880;-64
2023/01/21 06:41:35;;;;;;;7.60;3.90;;;-0.40;99.90;;;;;;4396251;28;656892;-65
2023/01/21 06:44:23;;;;;;;8.33;3.90;;;-0.40;99.90;;;;;;4410830;28;658175;-64
2023/01/21 06:47:12;;;;;;;6.50;4.13;;;-0.40;99.90;;;;;;4399567;28;657546;-65
2023/01/21 06:49:59;;;;;;;9.40;4.30;;;-0.40;99.90;;;;;;4413754;28;656763;-64
2023/01/21 06:52:47;;;;;;;9.60;3.87;;;-0.40;99.90;;;;;;4392767;28;656695;-72
2023/01/21 06:55:34;;;;;;;8.13;4.40;;;-0.30;99.90;;;;;;4414294;28;656412;-72
2023/01/21 06:58:21;;;;;;;7.32;3.78;;;-0.30;99.90;;;;;;4402527;28;656855;-72
2023/01/21 07:01:08;;;;;;;11.67;4.87;;;-0.30;99.90;;;;;;4411216;28;657534;-72
2023/01/21 07:04:00;;;;;;;12.53;4.53;;;-0.30;99.90;;;;;;4388186;28;657348;-72
2023/01/21 07:06:47;;;;;;;8.53;4.30;;;-0.20;99.90;;;;;;4388832;28;659001;-72
2023/01/21 07:09:34;;;;;;;8.93;4.67;;;-0.40;99.90;;;;;;4412824;28;656685;-72
2023/01/21 07:12:21;;;;;;;11.50;4.63;;;-0.30;99.90;;;;;;4389073;28;656539;-72
2023/01/21 07:15:09;;;;;;;12.90;5.70;;;-0.20;99.90;;;;;;4409250;28;658002;-72
2023/01/21 07:17:57;;;;;;;9.63;4.53;;;-0.10;99.90;;;;;;4390690;28;657952;-73
2023/01/21 07:20:45;;;;;;;9.17;4.57;;;-0.10;99.90;;;;;;4426503;28;657358;-72
2023/01/21 07:23:32;;;;;;;10.03;5.17;;;-0.10;99.90;;;;;;4419214;28;657421;-73
2023/01/21 07:26:20;;;;;;;10.53;5.00;;;0.00;99.90;;;;;;4438320;28;657656;-74
2023/01/21 07:29:08;;;;;;;8.40;4.40;;;0.00;99.90;;;;;;4440278;28;656781;-73
2023/01/21 07:31:55;;;;;;;9.33;4.57;;;0.10;99.90;;;;;;4418204;28;656186;-73
2023/01/21 07:34:42;;;;;;;20.50;9.07;;;-0.10;99.90;;;;;;4438060;28;656570;-71
2023/01/21 07:37:32;;;;;;;13.87;6.47;;;0.10;99.90;;;;;;4432238;28;658018;-70
2023/01/21 07:40:19;;;;;;;14.63;6.83;;;0.20;99.90;;;;;;4444037;28;656113;-71
2023/01/21 07:43:06;;;;;;;11.87;5.10;;;0.10;99.90;;;;;;4421802;28;656565;-71
2023/01/21 07:45:55;;;;;;;38.03;13.43;;;0.10;99.90;;;;;;4441299;28;657701;-71
2023/01/21 07:48:42;;;;;;;7.10;4.03;;;0.30;99.90;;;;;;4414061;28;658385;-72
2023/01/21 07:51:29;;;;;;;34.93;14.40;;;0.40;99.90;;;;;;4441180;28;655612;-72
2023/01/21 07:54:18;;;;;;;71.40;27.58;;;0.40;99.90;;;;;;4420519;28;657748;-71
2023/01/21 07:57:05;;;;;;;90.00;32.70;;;0.50;99.90;;;;;;4432024;28;657304;-72
2023/01/21 07:59:52;;;;;;;66.23;25.00;;;0.70;99.90;;;;;;4440693;28;658594;-72
2023/01/21 08:02:40;;;;;;;16.93;7.17;;;0.80;99.90;;;;;;4434781;28;658466;-72
2023/01/21 08:05:28;;;;;;;7.43;4.30;;;0.80;99.90;;;;;;4437488;28;657633;-72
2023/01/21 08:08:15;;;;;;;9.70;3.67;;;0.80;99.90;;;;;;4426576;28;655785;-74
2023/01/21 08:11:04;;;;;;;7.77;4.40;;;0.80;99.90;;;;;;4441630;28;656192;-73
2023/01/21 08:13:51;;;;;;;16.60;7.30;;;0.80;99.90;;;;;;4421099;28;655854;-73
2023/01/21 08:16:39;;;;;;;8.53;4.80;;;0.80;99.90;;;;;;4439316;28;657288;-74
2023/01/21 08:19:26;;;;;;;6.07;3.70;;;0.80;99.90;;;;;;4415668;28;655487;-71
2023/01/21 08:22:13;;;;;;;13.90;4.82;;;0.70;99.90;;;;;;4433660;28;656411;-72
2023/01/21 08:25:00;;;;;;;35.97;14.53;;;0.70;99.90;;;;;;4412063;28;656484;-75
2023/01/21 08:27:49;;;;;;;6.37;3.93;;;0.80;99.90;;;;;;4438162;28;658549;-73
2023/01/21 08:30:36;;;;;;;88.53;34.10;;;0.90;99.90;;;;;;4415519;28;656039;-74
2023/01/21 08:33:23;;;;;;;6.43;4.10;;;0.90;99.90;;;;;;4441843;28;658645;-74
2023/01/21 08:36:11;;;;;;;8.53;3.60;;;1.00;99.90;;;;;;4412908;28;655688;-75
2023/01/21 08:39:00;;;;;;;36.20;4.50;;;0.70;99.90;;;;;;4440161;28;655561;-74
2023/01/21 08:41:47;;;;;;;10.87;4.70;;;0.80;99.90;;;;;;4411577;28;657380;-74
2023/01/21 08:44:37;;;;;;;7.30;3.80;;;1.00;99.90;;;;;;4430189;28;656982;-74
2023/01/21 08:47:24;;;;;;;6.93;3.60;;;1.10;99.90;;;;;;4435029;28;655132;-75
2023/01/21 08:50:11;;;;;;;8.53;4.13;;;1.10;99.90;;;;;;4415245;28;655827;-75
2023/01/21 08:52:59;;;;;;;52.93;17.57;;;1.10;99.90;;;;;;4439054;28;655538;-74
2023/01/21 08:55:46;;;;;;;7.03;3.33;;;1.10;99.90;;;;;;4414235;28;657991;-70
2023/01/21 08:58:33;;;;;;;6.17;3.57;;;0.90;99.90;;;;;;4443685;28;656650;-72
2023/01/21 09:01:22;;;;;;;7.13;3.97;;;1.00;99.90;;;;;;4416171;28;655514;-72
2023/01/21 09:04:10;;;;;;;8.07;3.80;;;0.90;99.90;;;;;;4441482;28;655401;-73
2023/01/21 09:06:57;;;;;;;7.30;4.17;;;0.80;99.90;;;;;;4423598;28;655304;-73
2023/01/21 09:09:44;;;;;;;9.47;4.43;;;0.90;99.90;;;;;;4439963;28;655948;-71
2023/01/21 09:12:31;;;;;;;6.97;3.83;;;1.10;99.90;;;;;;4416636;28;655559;-72
2023/01/21 09:15:19;;;;;;;6.53;3.73;;;1.10;99.90;;;;;;4434696;28;655738;-71
2023/01/21 09:18:07;;;;;;;7.77;4.13;;;0.90;99.90;;;;;;4424798;28;655654;-72
2023/01/21 09:21:00;;;;;;;7.10;3.93;;;0.80;99.90;;;;;;4431632;28;656680;-70
2023/01/21 09:23:47;;;;;;;6.57;3.70;;;1.00;99.90;;;;;;4419280;28;655984;-69
2023/01/21 09:26:36;;;;;;;7.57;3.97;;;1.00;99.90;;;;;;4411400;28;655608;-72
2023/01/21 09:29:23;;;;;;;9.83;4.13;;;0.80;99.90;;;;;;4442567;28;656068;-73
2023/01/21 09:32:10;;;;;;;7.63;4.37;;;1.00;99.90;;;;;;4414680;28;655383;-72
2023/01/21 09:34:59;;;;;;;8.97;4.80;;;1.00;99.90;;;;;;4439664;28;656970;-73
2023/01/21 09:37:47;;;;;;;7.47;4.30;;;1.00;99.90;;;;;;4419925;28;655925;-75
2023/01/21 09:40:34;;;;;;;7.87;3.70;;;1.10;99.90;;;;;;4442886;28;655736;-72
2023/01/21 09:43:23;;;;;;;6.77;4.10;;;1.10;99.90;;;;;;4414014;28;655821;-71
2023/01/21 09:46:15;;;;;;;7.23;4.33;;;1.10;99.90;;;;;;4411744;28;655774;-73
2023/01/21 09:49:03;;;;;;;8.20;4.50;;;1.20;99.90;;;;;;4414197;28;658422;-73
2023/01/21 09:51:54;;;;;;;8.03;4.17;;;1.20;99.90;;;;;;4419663;28;655654;-72
2023/01/21 09:54:42;;;;;;;7.97;4.20;;;1.00;99.90;;;;;;4420352;28;655860;-74
2023/01/21 09:57:41;;;;;;;7.83;3.90;;;1.00;99.90;;;;;;4435621;28;655481;-73
2023/01/21 10:00:34;;;;;;;7.50;4.17;;;1.10;99.90;;;;;;4416085;28;655488;-73
2023/01/21 10:03:25;;;;;;;9.03;5.07;;;1.30;99.90;;;;;;4394733;28;655966;-73
2023/01/21 10:06:21;;;;;;;10.80;5.83;;;0.80;99.90;;;;;;4414424;28;657052;-70
2023/01/21 10:09:40;;;;;;;10.80;6.03;;;0.60;99.90;;;;;;4416120;28;657096;-70
2023/01/21 10:12:34;;;;;;;10.03;5.30;;;0.90;99.90;;;;;;4394611;28;656555;-71
2023/01/21 10:15:30;;;;;;;8.53;4.50;;;1.20;99.90;;;;;;4413455;28;656424;-73
2023/01/21 10:18:18;;;;;;;10.67;5.33;;;1.30;99.90;;;;;;4388636;28;656103;-72
2023/01/21 10:21:08;;;;;;;9.10;5.50;;;1.50;99.90;;;;;;4423919;28;656335;-74
2023/01/21 10:23:58;;;;;;;9.60;5.60;;;1.60;99.90;;;;;;4430557;28;655654;-75
2023/01/21 10:26:47;;;;;;;9.80;5.30;;;1.50;99.90;;;;;;4425156;28;655467;-72
2023/01/21 10:29:35;;;;;;;9.40;5.30;;;1.50;99.90;;;;;;4435366;28;655289;-71
2023/01/21 10:32:25;;;;;;;10.53;5.40;;;1.60;99.90;;;;;;4439015;28;656005;-72
2023/01/21 10:35:15;;;;;;;10.30;5.43;;;1.50;99.90;;;;;;4411171;28;657583;-70
2023/01/21 10:38:05;;;;;;;12.87;5.70;;;1.40;99.90;;;;;;4413019;28;657577;-71
2023/01/21 10:40:55;;;;;;;12.13;5.73;;;1.40;99.90;;;;;;4419601;28;656942;-71
2023/01/21 10:43:47;;;;;;;10.47;5.67;;;1.40;99.90;;;;;;4412930;28;656541;-72
2023/01/21 10:46:39;;;;;;;9.97;5.43;;;1.30;99.90;;;;;;4417255;28;656083;-69
2023/01/21 10:49:31;;;;;;;13.67;5.63;;;1.20;99.90;;;;;;4422010;28;655390;-73
2023/01/21 10:52:20;;;;;;;13.40;6.47;;;0.80;99.90;;;;;;4415471;28;657570;-72
2023/01/21 10:55:16;;;;;;;11.37;5.90;;;0.90;99.90;;;;;;4415163;28;657307;-70
2023/01/21 10:58:04;;;;;;;12.83;6.87;;;1.00;99.90;;;;;;4422516;28;657296;-75
2023/01/21 11:00:53;;;;;;;15.77;6.67;;;0.90;99.90;;;;;;4427560;28;657506;-74
2023/01/21 11:03:41;;;;;;;19.93;7.23;;;1.10;99.90;;;;;;4419307;28;656556;-75
2023/01/21 11:06:29;;;;;;;15.10;6.73;;;1.20;99.90;;;;;;4434791;28;657114;-72
2023/01/21 11:09:16;;;;;;;11.57;6.57;;;1.20;99.90;;;;;;4421121;28;657200;-72
2023/01/21 11:12:04;;;;;;;15.53;7.17;;;1.00;99.90;;;;;;4445892;28;657958;-73
2023/01/21 11:14:51;;;;;;;13.87;7.27;;;1.20;99.90;;;;;;4416064;28;657470;-72
2023/01/21 11:17:41;;;;;;;8.13;4.73;;;1.10;99.90;;;;;;4442752;28;658017;-75
2023/01/21 11:20:39;;;;;;;11.57;5.90;;;1.20;99.90;;;;;;4418384;28;656293;-72
2023/01/21 11:23:28;;;;;;;11.60;6.10;;;1.10;99.90;;;;;;4413566;28;656862;-72
2023/01/21 11:26:18;;;;;;;12.55;5.38;;;0.90;99.90;;;;;;4425464;28;657880;-73
2023/01/21 11:29:11;;;;;;;12.60;6.38;;;0.90;99.90;;;;;;4423763;28;657765;-73
2023/01/21 11:32:01;;;;;;;12.73;5.97;;;1.00;99.90;;;;;;4418564;28;658410;-73
2023/01/21 11:34:51;;;;;;;11.73;5.60;;;1.10;99.90;;;;;;4415562;28;657863;-72
2023/01/21 11:37:38;;;;;;;11.60;5.80;;;1.10;99.90;;;;;;4412826;28;656651;-72
2023/01/21 11:40:25;;;;;;;12.33;6.07;;;1.10;99.90;;;;;;4423854;28;656155;-73
2023/01/21 11:43:30;;;;;;;12.10;6.20;;;1.10;99.90;;;;;;4445267;28;657444;-74
2023/01/21 11:46:27;;;;;;;13.60;6.83;;;1.20;99.90;;;;;;4417879;28;657422;-72
2023/01/21 11:49:31;;;;;;;12.90;6.40;;;1.40;99.90;;;;;;4410282;28;656965;-72
2023/01/21 11:52:20;;;;;;;13.52;6.55;;;1.40;99.90;;;;;;4421334;28;656415;-75
2023/01/21 11:55:18;;;;;;;14.63;7.33;;;1.50;99.90;;;;;;4422729;28;656951;-74
2023/01/21 11:58:06;;;;;;;14.37;7.20;;;1.50;99.90;;;;;;4397954;28;656840;-72
2023/01/21 12:00:54;;;;;;;13.23;6.23;;;1.60;99.90;;;;;;4434177;28;657476;-72
2023/01/21 12:03:44;;;;;;;11.33;6.17;;;1.80;99.90;;;;;;4427449;28;656665;-74
2023/01/21 12:06:31;;;;;;;12.63;6.80;;;1.90;99.90;;;;;;4421909;28;656375;-74
2023/01/21 12:09:20;;;;;;;15.10;7.10;;;1.90;99.90;;;;;;4444813;28;656971;-73
2023/01/21 12:12:24;;;;;;;13.10;6.60;;;1.60;99.90;;;;;;4419443;28;657834;-73
2023/01/21 12:15:19;;;;;;;13.20;6.30;;;1.70;99.90;;;;;;4420715;28;656619;-74
2023/01/21 12:18:13;;;;;;;11.30;5.93;;;1.70;99.90;;;;;;4419990;28;656159;-73
2023/01/21 12:21:03;;;;;;;13.30;6.83;;;1.40;99.90;;;;;;4399363;28;657112;-73
2023/01/21 12:23:58;;;;;;;14.47;6.43;;;1.60;99.90;;;;;;4423936;28;656537;-74
2023/01/21 12:26:48;;;;;;;11.17;5.87;;;1.70;99.90;;;;;;4405171;28;656469;-73
2023/01/21 12:29:43;;;;;;;12.40;6.70;;;1.70;99.90;;;;;;4435909;28;656604;-74
2023/01/21 12:32:31;;;;;;;14.35;6.68;;;1.80;99.90;;;;;;4422335;28;656433;-74
2023/01/21 12:35:24;;;;;;;14.10;6.73;;;2.00;99.90;;;;;;4439818;28;657416;-74
2023/01/21 12:38:13;;;;;;;10.77;6.27;;;1.80;99.90;;;;;;4423007;28;656412;-74
2023/01/21 12:41:02;;;;;;;15.33;7.10;;;1.50;99.90;;;;;;4420921;28;657719;-74
2023/01/21 12:43:53;;;;;;;14.60;7.80;;;1.80;99.90;;;;;;4439114;28;656940;-74
2023/01/21 12:46:43;;;;;;;15.60;6.83;;;1.80;99.90;;;;;;4426178;28;656472;-74
2023/01/21 12:49:53;;;;;;;16.30;6.80;;;2.00;99.90;;;;;;4421758;28;656769;-74
2023/01/21 12:52:44;;;;;;;16.27;9.00;;;1.80;99.90;;;;;;4418188;28;657489;-75
2023/01/21 12:55:37;;;;;;;19.67;8.13;;;1.80;99.90;;;;;;4417368;28;656662;-74
2023/01/21 12:58:25;;;;;;;19.63;8.83;;;1.70;99.90;;;;;;4421253;28;656492;-74
2023/01/21 13:01:17;;;;;;;19.73;9.40;;;1.70;99.90;;;;;;4414083;28;656898;-74
2023/01/21 13:04:06;;;;;;;18.33;9.20;;;1.40;99.90;;;;;;4419413;28;656948;-73
2023/01/21 13:06:56;;;;;;;19.55;9.20;;;1.40;99.90;;;;;;4417064;28;657752;-74
2023/01/21 13:09:46;;;;;;;21.63;10.00;;;1.40;99.90;;;;;;4413877;28;657702;-73
2023/01/21 13:12:33;;;;;;;21.87;10.50;;;1.20;99.90;;;;;;4413009;28;658058;-74
2023/01/21 13:15:22;;;;;;;19.90;9.50;;;1.10;99.90;;;;;;4418103;28;657424;-74
2023/01/21 13:18:12;;;;;;;20.50;10.50;;;1.10;99.90;;;;;;4438447;28;656722;-74
2023/01/21 13:21:02;;;;;;;16.67;9.73;;;1.10;99.90;;;;;;4427930;28;657322;-73
2023/01/21 13:23:51;;;;;;;22.40;9.77;;;1.10;99.90;;;;;;4411876;28;656548;-73
2023/01/21 13:26:41;;;;;;;21.27;9.87;;;1.10;99.90;;;;;;4413803;28;658134;-73
2023/01/21 13:29:33;;;;;;;21.80;10.97;;;1.00;99.90;;;;;;4404162;28;658171;-73
2023/01/21 13:32:28;;;;;;;27.00;12.20;;;0.90;99.90;;;;;;4422695;28;657866;-73
2023/01/21 13:35:23;;;;;;;27.30;12.23;;;0.80;99.90;;;;;;4395656;28;657849;-73
2023/01/21 13:38:16;;;;;;;27.85;12.40;;;0.80;99.90;;;;;;4418614;28;657755;-73
2023/01/21 13:41:11;;;;;;;30.43;14.10;;;0.90;99.90;;;;;;4407898;28;658019;-73
2023/01/21 13:44:10;;;;;;;27.38;12.52;;;0.80;99.90;;;;;;4418656;28;658143;-73
2023/01/21 13:47:03;;;;;;;29.13;14.07;;;0.70;99.90;;;;;;4415091;28;658223;-73
2023/01/21 13:49:58;;;;;;;29.73;13.13;;;0.60;99.90;;;;;;4402358;28;657928;-77
2023/01/21 13:53:01;;;;;;;26.17;12.53;;;0.70;99.90;;;;;;4417588;28;657584;-75
2023/01/21 13:55:54;;;;;;;28.20;12.60;;;0.60;99.90;;;;;;4418122;28;657561;-76
2023/01/21 13:58:42;;;;;;;26.90;12.77;;;0.50;99.90;;;;;;4414517;28;658316;-76
2023/01/21 14:01:32;;;;;;;33.27;14.07;;;0.50;99.90;;;;;;4429336;28;657848;-76
2023/01/21 14:04:24;;;;;;;29.67;13.57;;;0.60;99.90;;;;;;4439753;28;657356;-76
2023/01/21 14:07:13;;;;;;;29.70;13.27;;;0.50;99.90;;;;;;4414394;28;658057;-76
2023/01/21 14:10:04;;;;;;;32.73;14.17;;;0.40;99.90;;;;;;4426867;28;657240;-76
2023/01/21 14:13:21;;;;;;;33.87;13.40;;;0.50;99.90;;;;;;4421187;28;657794;-76
2023/01/21 14:16:29;;;;;;;33.50;13.43;;;0.50;99.90;;;;;;4406383;28;657773;-75
2023/01/21 14:19:32;;;;;;;32.27;13.83;;;0.50;99.90;;;;;;4417320;28;657876;-75
2023/01/21 14:22:29;;;;;;;36.07;14.60;;;0.50;99.90;;;;;;4419060;28;658381;-75
2023/01/21 14:25:23;;;;;;;34.23;13.50;;;0.50;99.90;;;;;;4418241;28;657467;-75
2023/01/21 14:28:14;;;;;;;29.67;12.93;;;0.50;99.90;;;;;;4405579;28;657376;-75
2023/01/21 14:31:02;;;;;;;33.27;12.60;;;0.50;99.90;;;;;;4415841;28;657279;-75
2023/01/21 14:33:52;;;;;;;30.10;14.20;;;0.50;99.90;;;;;;4441509;28;656692;-74